createdAt,value
2022-11-14T00:01:22.842Z,4.20
2022-11-14T00:03:52.247Z,4.00
2022-11-14T00:06:20.541Z,4.00
2022-11-14T00:08:49.099Z,5.00
2022-11-14T00:11:18.722Z,6.20
2022-11-14T00:13:46.998Z,1.00
2022-11-14T00:16:15.561Z,4.80
2022-11-14T00:18:43.833Z,6.00
2022-11-14T00:21:12.091Z,3.20
2022-11-14T00:23:40.362Z,2.80
2022-11-14T00:26:08.917Z,13.20
2022-11-14T00:28:38.579Z,12.00
2022-11-14T00:31:07.100Z,38.00
2022-11-14T00:33:35.401Z,15.40
2022-11-14T00:36:03.698Z,8.00
2022-11-14T00:38:32.278Z,6.80
2022-11-14T00:41:01.003Z,3.20
2022-11-14T00:43:29.250Z,4.00
2022-11-14T00:45:58.902Z,3.40
2022-11-14T00:48:27.794Z,3.00
2022-11-14T00:50:56.366Z,4.00
2022-11-14T00:53:24.672Z,3.00
2022-11-14T00:55:53.207Z,3.00
2022-11-14T00:58:21.483Z,3.00
2022-11-14T01:00:49.823Z,3.40
2022-11-14T01:03:19.527Z,3.40
2022-11-14T01:05:48.603Z,1.00
2022-11-14T01:08:17.262Z,2.20
2022-11-14T01:10:46.958Z,3.60
2022-11-14T01:13:15.388Z,3.00
2022-11-14T01:15:44.319Z,3.00
2022-11-14T01:18:13.410Z,3.80
2022-11-14T01:20:43.327Z,4.40
2022-11-14T01:23:11.999Z,4.00
2022-11-14T01:25:40.792Z,2.80
2022-11-14T01:28:09.598Z,5.60
2022-11-14T01:30:37.940Z,3.00
2022-11-14T01:33:06.435Z,3.00
2022-11-14T01:35:34.949Z,1.80
2022-11-14T01:38:05.241Z,4.00
2022-11-14T01:40:35.025Z,4.40
2022-11-14T01:43:24.654Z,3.20
2022-11-14T01:45:54.848Z,3.20
2022-11-14T01:48:24.583Z,3.00
2022-11-14T01:50:56.056Z,4.80
2022-11-14T01:53:25.780Z,2.20
2022-11-14T01:55:54.369Z,1.80
2022-11-14T01:58:22.863Z,4.00
2022-11-14T02:00:51.396Z,4.80
2022-11-14T02:03:19.757Z,4.00
2022-11-14T02:05:48.020Z,3.80
2022-11-14T02:08:16.408Z,4.00
2022-11-14T02:10:46.365Z,5.60
2022-11-14T02:13:14.661Z,4.00
2022-11-14T02:15:42.961Z,4.80
2022-11-14T02:18:12.565Z,3.80
2022-11-14T02:20:43.535Z,3.80
2022-11-14T02:23:12.362Z,6.00
2022-11-14T02:25:40.653Z,6.40
2022-11-14T02:28:09.168Z,3.40
2022-11-14T02:30:37.721Z,6.00
2022-11-14T02:33:11.065Z,6.00
2022-11-14T02:35:41.302Z,4.80
2022-11-14T02:38:09.971Z,4.00
2022-11-14T02:40:38.275Z,4.00
2022-11-14T02:43:06.574Z,3.40
2022-11-14T02:45:34.875Z,6.40
2022-11-14T02:48:03.519Z,4.20
2022-11-14T02:50:31.812Z,3.00
2022-11-14T02:53:01.453Z,6.80
2022-11-14T02:55:30.022Z,7.00
2022-11-14T02:57:58.283Z,6.80
2022-11-14T03:00:26.620Z,5.20
2022-11-14T03:02:54.954Z,6.00
2022-11-14T03:05:23.564Z,6.00
2022-11-14T03:07:54.744Z,2.20
2022-11-14T03:10:24.606Z,7.00
2022-11-14T03:12:55.236Z,4.40
2022-11-14T03:15:23.535Z,6.60
2022-11-14T03:17:51.815Z,9.00
2022-11-14T03:20:20.602Z,6.80
2022-11-14T03:22:48.923Z,7.00
2022-11-14T03:25:17.338Z,4.00
2022-11-14T03:27:46.961Z,9.00
2022-11-14T03:30:15.849Z,5.60
2022-11-14T03:32:44.149Z,5.20
2022-11-14T03:35:12.422Z,7.60
2022-11-14T03:37:40.714Z,8.60
2022-11-14T03:40:10.235Z,7.20
2022-11-14T03:42:38.544Z,6.00
2022-11-14T03:45:08.678Z,6.00
2022-11-14T03:47:36.979Z,5.60
2022-11-14T03:50:06.065Z,6.80
2022-11-14T03:52:34.336Z,4.40
2022-11-14T03:55:02.599Z,6.80
2022-11-14T03:57:31.188Z,4.00
2022-11-14T03:59:59.455Z,7.00
2022-11-14T04:02:29.191Z,7.00
2022-11-14T04:04:57.489Z,7.00
2022-11-14T04:07:25.846Z,9.00
2022-11-14T04:09:54.191Z,6.20
2022-11-14T04:12:22.480Z,7.80
2022-11-14T04:14:50.760Z,5.20
2022-11-14T04:17:19.016Z,4.40
2022-11-14T04:19:48.703Z,4.00
2022-11-14T04:22:16.959Z,4.80
2022-11-14T04:24:45.263Z,8.60
2022-11-14T04:27:13.514Z,8.60
2022-11-14T04:29:41.801Z,6.00
2022-11-14T04:32:10.083Z,6.00
2022-11-14T04:34:39.104Z,7.00
2022-11-14T04:37:08.803Z,8.00
2022-11-14T04:39:37.152Z,6.00
2022-11-14T04:42:05.627Z,6.40
2022-11-14T04:44:34.167Z,8.60
2022-11-14T04:47:02.459Z,7.00
2022-11-14T04:49:30.721Z,6.80
2022-11-14T04:51:59.280Z,7.00
2022-11-14T04:54:29.019Z,4.40
2022-11-14T04:56:57.266Z,6.80
2022-11-14T04:59:25.553Z,6.40
2022-11-14T05:01:53.848Z,9.80
2022-11-14T05:04:22.434Z,9.80
2022-11-14T05:06:50.725Z,9.00
2022-11-14T05:09:19.076Z,4.00
2022-11-14T05:11:48.772Z,8.80
2022-11-14T05:14:17.331Z,7.40
2022-11-14T05:16:45.608Z,7.40
2022-11-14T05:19:15.051Z,9.60
2022-11-14T05:21:43.321Z,9.40
2022-11-14T05:24:11.602Z,8.00
2022-11-14T05:26:39.939Z,9.00
2022-11-14T05:29:09.903Z,8.20
2022-11-14T05:31:38.198Z,9.40
2022-11-14T05:34:06.605Z,3.00
2022-11-14T05:36:35.302Z,10.40
2022-11-14T05:39:03.546Z,9.60
2022-11-14T05:41:32.128Z,10.80
2022-11-14T05:44:00.417Z,6.00
2022-11-14T05:46:32.910Z,9.80
2022-11-14T05:49:03.071Z,10.80
2022-11-14T05:51:31.442Z,9.60
2022-11-14T05:53:59.994Z,9.80
2022-11-14T05:56:28.278Z,12.00
2022-11-14T05:58:56.536Z,10.20
2022-11-14T06:01:25.114Z,12.00
2022-11-14T06:03:54.808Z,8.20
2022-11-14T06:06:23.116Z,12.60
2022-11-14T06:08:51.636Z,12.80
2022-11-14T06:11:20.677Z,12.00
2022-11-14T06:13:49.175Z,10.00
2022-11-14T06:16:18.690Z,12.20
2022-11-14T06:18:47.188Z,10.00
2022-11-14T06:21:17.876Z,12.20
2022-11-14T06:23:46.231Z,12.00
2022-11-14T06:26:18.078Z,15.20
2022-11-14T06:28:46.370Z,10.40
2022-11-14T06:31:14.901Z,10.80
2022-11-14T06:33:43.187Z,13.80
2022-11-14T06:36:11.650Z,9.20
2022-11-14T06:38:41.949Z,11.80
2022-11-14T06:41:10.910Z,13.00
2022-11-14T06:43:40.309Z,12.60
2022-11-14T06:46:09.147Z,14.20
2022-11-14T06:48:37.436Z,10.80
2022-11-14T06:51:06.431Z,12.40
2022-11-14T06:53:37.579Z,14.40
2022-11-14T06:56:08.323Z,7.40
2022-11-14T06:58:39.096Z,12.80
2022-11-14T07:01:07.814Z,15.40
2022-11-14T07:03:36.119Z,16.80
2022-11-14T07:06:04.449Z,7.80
2022-11-14T07:08:33.236Z,16.80
2022-11-14T07:11:04.142Z,13.80
2022-11-14T07:13:33.822Z,16.60
2022-11-14T07:16:02.233Z,15.60
2022-11-14T07:18:31.442Z,16.40
2022-11-14T07:21:00.686Z,16.80
2022-11-14T07:23:28.986Z,18.20
2022-11-14T07:25:57.261Z,15.20
2022-11-14T07:28:25.521Z,17.20
2022-11-14T07:30:59.872Z,18.40
2022-11-14T07:33:31.620Z,15.20
2022-11-14T07:36:00.026Z,14.20
2022-11-14T07:38:28.704Z,20.40
2022-11-14T07:40:59.834Z,15.00
2022-11-14T07:43:28.637Z,18.00
2022-11-14T07:46:01.646Z,19.20
2022-11-14T07:48:30.264Z,18.20
2022-11-14T07:51:01.101Z,14.20
2022-11-14T07:53:31.432Z,17.60
2022-11-14T07:56:05.892Z,18.20
2022-11-14T07:58:34.880Z,18.00
2022-11-14T08:01:04.658Z,16.20
2022-11-14T08:03:33.987Z,15.00
2022-11-14T08:06:03.580Z,20.60
2022-11-14T08:08:32.258Z,23.20
2022-11-14T08:11:00.892Z,18.00
2022-11-14T08:13:32.693Z,18.80
2022-11-14T08:16:12.028Z,13.80
2022-11-14T08:18:41.842Z,18.20
2022-11-14T08:21:10.166Z,17.80
2022-11-14T08:23:38.973Z,20.20
2022-11-14T08:26:07.441Z,18.60
2022-11-14T08:28:36.016Z,22.20
2022-11-14T08:31:05.032Z,22.00
2022-11-14T08:33:36.521Z,22.20
2022-11-14T08:36:05.360Z,22.40
2022-11-14T08:38:34.029Z,20.80
2022-11-14T08:41:02.606Z,16.80
2022-11-14T08:43:30.945Z,19.40
2022-11-14T08:46:01.924Z,17.00
2022-11-14T08:48:31.081Z,13.00
2022-11-14T08:51:04.153Z,24.40
2022-11-14T08:53:32.600Z,11.60
2022-11-14T08:56:01.173Z,21.00
2022-11-14T08:58:31.590Z,17.20
2022-11-14T09:01:02.495Z,22.80
2022-11-14T09:03:30.994Z,15.00
2022-11-14T09:06:00.783Z,17.80
2022-11-14T09:08:29.791Z,20.20
2022-11-14T09:11:05.155Z,15.80
2022-11-14T09:13:34.504Z,19.40
2022-11-14T09:16:02.989Z,21.40
2022-11-14T09:18:31.654Z,24.00
2022-11-14T09:21:03.259Z,16.60
2022-11-14T09:23:32.011Z,17.60
2022-11-14T09:26:00.668Z,19.20
2022-11-14T09:28:29.247Z,25.40
2022-11-14T09:31:02.334Z,18.20
2022-11-14T09:33:31.213Z,17.20
2022-11-14T09:35:59.910Z,19.00
2022-11-14T09:38:38.027Z,9.80
2022-11-14T09:41:16.061Z,12.80
2022-11-14T09:43:53.423Z,19.80
2022-11-14T09:46:22.886Z,21.20
2022-11-14T09:48:51.523Z,18.80
2022-11-14T09:51:22.078Z,21.40
2022-11-14T09:53:54.907Z,18.80
2022-11-14T09:56:26.611Z,21.20
2022-11-14T09:58:55.782Z,19.00
2022-11-14T10:01:32.316Z,15.60
2022-11-14T10:04:09.232Z,22.00
2022-11-14T10:06:41.677Z,17.20
2022-11-14T10:09:30.108Z,18.80
2022-11-14T10:12:03.625Z,22.00
2022-11-14T10:14:42.112Z,20.20
2022-11-14T10:17:17.497Z,24.20
2022-11-14T10:19:49.027Z,21.80
2022-11-14T10:22:23.446Z,20.60
2022-11-14T10:25:01.175Z,20.80
2022-11-14T10:27:31.481Z,20.40
2022-11-14T10:30:07.693Z,22.40
2022-11-14T10:32:44.881Z,15.60
2022-11-14T10:35:15.453Z,23.20
2022-11-14T10:37:56.929Z,17.80
2022-11-14T10:40:27.245Z,16.60
2022-11-14T10:42:58.363Z,22.20
2022-11-14T10:45:28.624Z,18.00
2022-11-14T10:47:58.717Z,14.20
2022-11-14T10:50:30.290Z,19.60
2022-11-14T10:53:00.746Z,18.80
2022-11-14T10:56:02.546Z,12.20
2022-11-14T10:58:19.236Z,18.40
2022-11-14T11:00:48.563Z,18.40
2022-11-14T11:03:17.172Z,17.20
2022-11-14T11:05:48.124Z,17.60
2022-11-14T11:08:43.200Z,18.40
2022-11-14T11:11:28.903Z,16.80
2022-11-14T11:13:58.853Z,16.00
2022-11-14T11:16:28.946Z,16.80
2022-11-14T11:19:14.622Z,19.00
2022-11-14T11:21:49.469Z,17.20
2022-11-14T11:24:33.254Z,21.00
2022-11-14T11:27:22.936Z,18.60
2022-11-14T11:30:03.758Z,18.00
2022-11-14T11:32:32.433Z,20.60
2022-11-14T11:35:02.210Z,16.00
2022-11-14T11:37:32.056Z,17.80
2022-11-14T11:40:03.360Z,16.80
2022-11-14T11:43:23.715Z,19.20
2022-11-14T11:45:24.951Z,17.60
2022-11-14T11:47:56.814Z,18.60
2022-11-14T11:50:27.046Z,12.40
2022-11-14T11:53:04.190Z,12.00
2022-11-14T11:55:34.106Z,15.80
2022-11-14T11:58:06.959Z,12.00
2022-11-14T12:00:35.357Z,16.00
2022-11-14T12:03:03.771Z,14.60
2022-11-14T12:05:35.826Z,14.20
2022-11-14T12:08:05.061Z,15.60
2022-11-14T12:10:34.761Z,18.60
2022-11-14T12:16:01.136Z,16.60
2022-11-14T12:18:38.158Z,13.40
2022-11-14T12:21:12.556Z,24.00
2022-11-14T12:23:58.384Z,13.80
2022-11-14T12:26:35.039Z,11.20
2022-11-14T12:29:13.311Z,16.00
2022-11-14T12:31:43.007Z,13.40
2022-11-14T12:34:16.507Z,15.80
2022-11-14T12:36:45.787Z,16.40
2022-11-14T12:39:22.859Z,18.00
2022-11-14T12:41:51.339Z,22.40
2022-11-14T12:44:21.678Z,14.20
2022-11-14T12:47:14.865Z,22.00
2022-11-14T12:49:58.904Z,21.20
2022-11-14T12:52:46.496Z,16.80
2022-11-14T12:55:44.539Z,18.00
2022-11-14T12:58:13.114Z,15.60
2022-11-14T13:01:01.265Z,23.00
2022-11-14T13:03:43.398Z,12.00
2022-11-14T13:06:12.835Z,16.40
2022-11-14T13:08:56.982Z,15.40
2022-11-14T13:11:51.275Z,18.20
2022-11-14T13:14:35.274Z,20.20
2022-11-14T13:17:30.587Z,15.60
2022-11-14T13:20:18.176Z,14.60
2022-11-14T13:22:46.733Z,18.80
2022-11-14T13:25:20.159Z,21.80
2022-11-14T13:31:09.704Z,15.80
2022-11-14T13:33:44.969Z,21.80
2022-11-14T13:36:16.654Z,18.00
2022-11-14T13:38:59.861Z,15.40
2022-11-14T13:41:51.100Z,11.20
2022-11-14T13:44:34.333Z,16.00
2022-11-14T13:47:10.661Z,19.80
2022-11-14T13:49:49.437Z,21.20
2022-11-14T13:52:19.529Z,17.20
2022-11-14T13:54:48.569Z,16.20
2022-11-14T13:57:20.939Z,21.00
2022-11-14T13:59:54.872Z,17.20
2022-11-14T14:02:34.726Z,18.00
2022-11-14T14:05:06.085Z,16.60
2022-11-14T14:07:52.682Z,18.80
2022-11-14T14:10:26.991Z,23.80
2022-11-14T14:13:02.641Z,18.80
2022-11-14T14:15:37.184Z,19.60
2022-11-14T14:18:11.316Z,19.20
2022-11-14T14:20:43.864Z,11.60
2022-11-14T14:23:23.331Z,16.80
2022-11-14T14:26:00.144Z,19.80
2022-11-14T14:28:34.780Z,15.20
2022-11-14T14:31:04.366Z,19.20
2022-11-14T14:33:41.623Z,16.00
2022-11-14T14:36:21.598Z,21.20
2022-11-14T14:38:51.745Z,16.60
2022-11-14T14:41:20.857Z,18.20
2022-11-14T14:43:53.880Z,20.20
2022-11-14T14:46:29.516Z,19.40
2022-11-14T14:48:57.799Z,18.80
2022-11-14T14:51:32.081Z,16.20
2022-11-14T14:54:01.759Z,14.60
2022-11-14T14:56:30.809Z,13.00
2022-11-14T14:58:59.113Z,18.40
2022-11-14T15:01:32.412Z,19.00
2022-11-14T15:04:03.692Z,17.40
2022-11-14T15:06:34.334Z,18.60
2022-11-14T15:09:09.606Z,20.20
2022-11-14T15:11:38.240Z,21.00
2022-11-14T15:14:06.797Z,17.60
2022-11-14T15:16:38.256Z,15.40
2022-11-14T15:19:08.367Z,13.00
2022-11-14T15:21:37.097Z,17.20
2022-11-14T15:24:15.178Z,16.40
2022-11-14T15:26:44.814Z,16.40
2022-11-14T15:29:19.044Z,15.80
2022-11-14T15:31:49.275Z,12.60
2022-11-14T15:34:27.373Z,17.80
2022-11-14T15:37:08.730Z,18.00
2022-11-14T15:39:40.485Z,16.40
2022-11-14T15:42:14.207Z,16.80
2022-11-14T15:44:43.356Z,16.20
2022-11-14T15:47:14.492Z,13.00
2022-11-14T15:49:45.802Z,15.60
2022-11-14T15:52:20.655Z,20.80
2022-11-14T15:54:50.362Z,16.80
2022-11-14T15:57:18.712Z,17.80
2022-11-14T15:59:47.102Z,17.20
2022-11-14T16:02:17.923Z,18.80
2022-11-14T16:04:47.865Z,20.20
2022-11-14T16:07:17.562Z,17.20
2022-11-14T16:09:45.974Z,16.20
2022-11-14T16:12:15.793Z,16.20
2022-11-14T16:14:45.090Z,17.60
2022-11-14T16:17:14.996Z,13.80
2022-11-14T16:19:43.467Z,15.80
2022-11-14T16:22:13.183Z,15.00
2022-11-14T16:24:44.554Z,14.20
2022-11-14T16:27:14.338Z,19.40
2022-11-14T16:29:44.138Z,19.00
2022-11-14T16:32:12.571Z,13.80
2022-11-14T16:34:40.858Z,12.00
2022-11-14T16:37:12.517Z,14.20
2022-11-14T16:39:40.782Z,18.20
2022-11-14T16:42:10.703Z,29.80
2022-11-14T16:44:41.995Z,19.80
2022-11-14T16:47:15.391Z,21.20
2022-11-14T16:49:43.674Z,22.00
2022-11-14T16:52:13.171Z,22.60
2022-11-14T16:54:41.516Z,21.60
2022-11-14T16:57:10.103Z,19.00
2022-11-14T16:59:38.437Z,16.40
2022-11-14T17:02:09.215Z,18.80
2022-11-14T17:04:46.330Z,18.80
2022-11-14T17:07:23.153Z,21.40
2022-11-14T17:09:54.827Z,21.40
2022-11-14T17:12:23.245Z,21.80
2022-11-14T17:14:51.607Z,14.80
2022-11-14T17:17:19.870Z,19.20
2022-11-14T17:19:50.729Z,14.20
2022-11-14T17:22:20.065Z,18.00
2022-11-14T17:24:48.699Z,12.40
2022-11-14T17:27:17.063Z,18.80
2022-11-14T17:29:46.786Z,21.40
2022-11-14T17:32:15.470Z,14.40
2022-11-14T17:34:43.832Z,21.40
2022-11-14T17:37:32.053Z,17.00
2022-11-14T17:40:00.665Z,15.20
2022-11-14T17:42:29.175Z,21.80
2022-11-14T17:45:01.169Z,16.40
2022-11-14T17:47:29.431Z,19.20
2022-11-14T17:49:57.853Z,14.20
2022-11-14T17:52:27.702Z,21.40
2022-11-14T17:54:56.162Z,18.40
2022-11-14T17:57:24.555Z,24.60
2022-11-14T17:59:53.071Z,13.00
2022-11-14T18:02:21.540Z,22.80
2022-11-14T18:04:50.116Z,21.60
2022-11-14T18:07:20.725Z,22.00
2022-11-14T18:09:50.449Z,18.40
2022-11-14T18:12:18.841Z,17.00
2022-11-14T18:14:47.532Z,18.00
2022-11-14T18:17:15.905Z,16.40
2022-11-14T18:19:44.261Z,18.60
2022-11-14T18:22:12.738Z,13.40
2022-11-14T18:24:46.909Z,22.60
2022-11-14T18:27:17.937Z,18.20
2022-11-14T18:29:46.330Z,18.00
2022-11-14T18:32:15.767Z,18.20
2022-11-14T18:34:44.633Z,23.80
2022-11-14T18:37:12.940Z,17.40
2022-11-14T18:39:41.347Z,17.60
2022-11-14T18:42:10.136Z,21.40
2022-11-14T18:44:40.085Z,17.60
2022-11-14T18:47:08.526Z,13.80
2022-11-14T18:49:36.907Z,19.80
2022-11-14T18:52:12.705Z,15.40
2022-11-14T18:54:44.208Z,13.40
2022-11-14T18:57:12.503Z,8.20
2022-11-14T18:59:42.395Z,20.00
2022-11-14T19:02:10.741Z,8.20
2022-11-14T19:04:39.189Z,17.80
2022-11-14T19:07:07.597Z,18.20
2022-11-14T19:09:35.869Z,12.00
2022-11-14T19:12:18.282Z,19.40
2022-11-14T19:14:49.898Z,13.40
2022-11-14T19:17:21.105Z,15.80
2022-11-14T19:19:49.957Z,16.80
2022-11-14T19:22:18.431Z,17.20
2022-11-14T19:24:46.674Z,21.60
2022-11-14T19:27:14.982Z,12.40
2022-11-14T19:29:43.282Z,15.00
2022-11-14T19:32:12.923Z,17.60
2022-11-14T19:34:41.181Z,15.40
2022-11-14T19:37:09.651Z,13.40
2022-11-14T19:39:38.188Z,18.00
2022-11-14T19:42:06.589Z,12.80
2022-11-14T19:44:34.882Z,20.00
2022-11-14T19:47:03.170Z,16.80
2022-11-14T19:49:33.198Z,18.60
2022-11-14T19:52:01.532Z,15.80
2022-11-14T19:54:29.779Z,19.00
2022-11-14T19:56:58.073Z,15.80
2022-11-14T19:59:28.896Z,14.20
2022-11-14T20:02:01.604Z,16.20
2022-11-14T20:04:37.720Z,10.00
2022-11-14T20:07:06.419Z,15.60
2022-11-14T20:09:35.153Z,12.80
2022-11-14T20:12:03.579Z,3.40
2022-11-14T20:14:31.907Z,15.20
2022-11-14T20:17:01.131Z,12.00
2022-11-14T20:19:29.509Z,14.60
2022-11-14T20:21:59.193Z,13.20
2022-11-14T20:24:27.502Z,12.60
2022-11-14T20:26:55.775Z,14.60
2022-11-14T20:29:24.120Z,15.60
2022-11-14T20:31:52.691Z,9.00
2022-11-14T20:34:21.092Z,12.40
2022-11-14T20:37:09.838Z,13.80
2022-11-14T20:39:41.845Z,13.80
2022-11-14T20:42:10.137Z,16.40
2022-11-14T20:44:38.505Z,9.80
2022-11-14T20:47:10.836Z,11.60
2022-11-14T20:49:39.587Z,11.20
2022-11-14T20:52:07.901Z,12.60
2022-11-14T20:54:36.170Z,12.00
2022-11-14T20:57:05.821Z,11.20
2022-11-14T20:59:34.412Z,12.60
2022-11-14T21:02:03.089Z,3.00
2022-11-14T21:04:31.400Z,13.00
2022-11-14T21:06:59.713Z,15.80
2022-11-14T21:09:28.205Z,9.00
2022-11-14T21:11:56.516Z,12.00
2022-11-14T21:14:26.537Z,12.00
2022-11-14T21:16:55.102Z,9.80
2022-11-14T21:19:23.745Z,10.80
2022-11-14T21:21:51.999Z,9.00
2022-11-14T21:24:20.553Z,14.40
2022-11-14T21:26:48.808Z,12.00
2022-11-14T21:29:17.358Z,12.60
2022-11-14T21:31:47.338Z,10.80
2022-11-14T21:34:17.990Z,14.60
2022-11-14T21:36:47.395Z,10.00
2022-11-14T21:39:17.438Z,10.00
2022-11-14T21:41:48.562Z,9.00
2022-11-14T21:44:17.969Z,13.20
2022-11-14T21:46:48.857Z,10.80
2022-11-14T21:49:17.374Z,12.80
2022-11-14T21:51:45.940Z,3.80
2022-11-14T21:54:14.199Z,10.80
2022-11-14T21:56:42.479Z,14.00
2022-11-14T21:59:15.500Z,13.60
2022-11-14T22:02:01.954Z,15.00
2022-11-14T22:04:30.351Z,13.80
2022-11-14T22:06:58.965Z,12.80
2022-11-14T22:09:28.652Z,12.20
2022-11-14T22:11:56.950Z,13.80
2022-11-14T22:14:25.236Z,11.20
2022-11-14T22:16:55.222Z,12.40
2022-11-14T22:19:24.114Z,12.60
2022-11-14T22:21:52.365Z,14.20
2022-11-14T22:24:20.722Z,12.60
2022-11-14T22:26:49.272Z,12.80
2022-11-14T22:29:17.551Z,14.60
2022-11-14T22:31:45.819Z,10.80
2022-11-14T22:34:15.832Z,13.00
2022-11-14T22:36:44.137Z,10.00
2022-11-14T22:39:12.426Z,11.20
2022-11-14T22:41:40.975Z,10.40
2022-11-14T22:44:09.247Z,11.80
2022-11-14T22:46:37.517Z,13.00
2022-11-14T22:49:05.810Z,15.40
2022-11-14T22:51:35.470Z,9.40
2022-11-14T22:54:03.729Z,12.80
2022-11-14T22:56:32.292Z,15.40
2022-11-14T22:59:00.758Z,13.60
2022-11-14T23:01:29.858Z,14.00
2022-11-14T23:03:59.146Z,16.60
2022-11-14T23:06:27.526Z,15.80
2022-11-14T23:08:57.329Z,18.00
2022-11-14T23:11:26.874Z,15.80
2022-11-14T23:13:56.557Z,18.40
2022-11-14T23:16:25.871Z,14.40
2022-11-14T23:18:54.945Z,11.80
2022-11-14T23:21:24.151Z,18.40
2022-11-14T23:23:54.231Z,15.20
2022-11-14T23:26:23.978Z,19.20
2022-11-14T23:28:52.336Z,19.40
2022-11-14T23:31:20.592Z,22.00
2022-11-14T23:33:49.303Z,22.00
2022-11-14T23:36:17.612Z,30.80
2022-11-14T23:38:45.861Z,27.25
2022-11-14T23:41:17.202Z,31.00
2022-11-14T23:43:46.898Z,29.75
2022-11-14T23:46:15.504Z,21.00
2022-11-14T23:48:44.896Z,18.40
2022-11-14T23:51:13.899Z,15.00
2022-11-14T23:53:42.273Z,12.40
2022-11-14T23:56:12.336Z,12.60
2022-11-14T23:58:40.877Z,8.60
